WetterOnline ( https://www.wetteronline.de )

Wetter aktuell Bietigheim-Bissingen

Aktuelles Wetter: Schnarrenberg/Stuttgart (315m)

6-stündlich | Neueste Meldungen
Ortszeit Temperatur Wetter
Do, 08.12. 19:00 2.2° C bedeckt
Do, 08.12. 13:00 2.7° C bedeckt
Do, 08.12. 7:00 -1.3° C wolkig
Do, 08.12. 1:00 1.3° C leicht bewölkt
Mi, 07.12. 19:00 2.8° C bedeckt
Mi, 07.12. 13:00 3.7° C bedeckt
Mi, 07.12. 7:00 1.6° C bewölkt
Mi, 07.12. 1:00 2.8° C bedeckt
Ortszeit Temperatur Wetter
Do, 08.12. 20:30 1.7° C bedeckt
Do, 08.12. 20:20 1.7° C bedeckt
Do, 08.12. 20:10 1.7° C bedeckt
Do, 08.12. 20:00 1.6° C bedeckt
Do, 08.12. 19:50 1.6° C bedeckt
Do, 08.12. 19:40 1.8° C bedeckt
Do, 08.12. 19:30 1.9° C bedeckt
Do, 08.12. 19:00 2.2° C bedeckt
Do, 08.12. 18:30 2.4° C bedeckt
Do, 08.12. 18:00 2.4° C bedeckt
Do, 08.12. 17:30 2.6° C bedeckt
Ortszeit Relative Feuchte Sichtweite
Do, 08.12. 19:00 71% 45 km
Do, 08.12. 13:00 72% 35 km
Do, 08.12. 7:00 93% 20 km
Do, 08.12. 1:00 83% 35 km
Mi, 07.12. 19:00 80% 30 km
Mi, 07.12. 13:00 80% 45 km
Mi, 07.12. 7:00 90% 21 km
Mi, 07.12. 1:00 92% 26 km
Ortszeit Relative Feuchte Sichtweite
Do, 08.12. 20:30 82% 35 km
Do, 08.12. 20:20 82% -
Do, 08.12. 20:10 82% -
Do, 08.12. 20:00 81% 30 km
Do, 08.12. 19:50 81% -
Do, 08.12. 19:40 80% -
Do, 08.12. 19:30 76% 40 km
Do, 08.12. 19:00 71% 45 km
Do, 08.12. 18:30 70% 50 km
Do, 08.12. 18:00 71% 55 km
Do, 08.12. 17:30 70% 45 km
Ortszeit Niederschlagsmenge Niederschlagsart
Do, 08.12. 19:00 0.1 l/m2 in 12 Std. Regen
Do, 08.12. 13:00 0.0 l/m2 in 6 Std. -
Do, 08.12. 7:00 0.0 l/m2 in 12 Std. -
Do, 08.12. 1:00 0.0 l/m2 in 6 Std. -
Mi, 07.12. 19:00 0.1 l/m2 in 12 Std. -
Mi, 07.12. 13:00 0.1 l/m2 in 6 Std. Niederschlag
Mi, 07.12. 7:00 0.1 l/m2 in 12 Std. -
Mi, 07.12. 1:00 0.1 l/m2 in 6 Std. Sprühregen
Ortszeit Niederschlagsmenge Niederschlagsart
Do, 08.12. 20:30 0.0 l/m2 in 1 Std. -
Do, 08.12. 20:20 keine Meldung -
Do, 08.12. 20:10 keine Meldung -
Do, 08.12. 20:00 0.0 l/m2 in 1 Std. -
Do, 08.12. 19:50 keine Meldung -
Do, 08.12. 19:40 keine Meldung -
Do, 08.12. 19:30 0.0 l/m2 in 1 Std. -
Do, 08.12. 19:00 0.0 l/m2 in 1 Std. Regen
Do, 08.12. 18:30 0.0 l/m2 in 1 Std. -
Do, 08.12. 18:00 0.0 l/m2 in 1 Std. -
Do, 08.12. 17:30 0.0 l/m2 in 1 Std. -
Ortszeit Stärke Spitze Richtung
km/h Bft. km/h Grad Sektor
Do, 08.12. 19:00 4 1 11 250° W
Do, 08.12. 13:00 4 1 18 140° SO
Do, 08.12. 7:00 9 2 13 160° S
Do, 08.12. 1:00 7 2 17 250° W
Mi, 07.12. 19:00 7 2 22 280° W
Mi, 07.12. 13:00 15 3 24 310° NW
Mi, 07.12. 7:00 7 2 22 330° NW
Mi, 07.12. 1:00 11 2 18 300° NW
Ortszeit Stärke Spitze Richtung
km/h Bft. km/h Grad Sektor
Do, 08.12. 20:30 2 1 4 120° SO
Do, 08.12. 20:20 2 1 - 120° SO
Do, 08.12. 20:10 2 1 - 330° NW
Do, 08.12. 20:00 4 1 7 290° W
Do, 08.12. 19:50 4 1 - 290° W
Do, 08.12. 19:40 4 1 - 340° N
Do, 08.12. 19:30 4 1 7 290° W
Do, 08.12. 19:00 4 1 7 250° W
Do, 08.12. 18:30 2 1 7 210° SW
Do, 08.12. 18:00 7 2 11 170° S
Do, 08.12. 17:30 7 2 11 210° SW
Ortszeit Untergrenze Bedeckung Gattung
total tief tief mittel hoch
Do, 08.12. 19:00 990 m 8/8 8/8 - - -
Do, 08.12. 13:00 960 m 8/8 8/8 - - -
Do, 08.12. 7:00 1800 m 6/8 4/8 - - -
Do, 08.12. 1:00 960 m 4/8 4/8 - - -
Mi, 07.12. 19:00 1500 m 8/8 8/8 - - -
Mi, 07.12. 13:00 480 m 8/8 8/8 - - -
Mi, 07.12. 7:00 1800 m 7/8 7/8 - - -
Mi, 07.12. 1:00 240 m 8/8 8/8 - - -
Ortszeit Bedeckungsgrad in Achtel und Wolkenuntergrenze
Do, 08.12. 20:30 8(1500m)
Do, 08.12. 20:20 8(1500m)
Do, 08.12. 20:10 8
Do, 08.12. 20:00 5(900m) 8(1500m)
Do, 08.12. 19:50 5(900m) 8(1500m)
Do, 08.12. 19:40 8
Do, 08.12. 19:30 3(840m) 8(1470m)
Do, 08.12. 19:00 1(990m) 8(1290m)
Do, 08.12. 18:30 8(1170m)
Do, 08.12. 18:00 8(1200m)
Do, 08.12. 17:30 8(1110m)
Ortszeit Luftdruck NN (hPa) Tendenz (hPa in 3 Std.)
Do, 08.12. 19:00 1010 - 0,4
Do, 08.12. 13:00 1011 - 1,5
Do, 08.12. 7:00 1013 - 1,0
Do, 08.12. 1:00 1015 - 0,9
Mi, 07.12. 19:00 1016 - 0,8
Mi, 07.12. 13:00 1018 - 1,1
Mi, 07.12. 7:00 1019 - 0,4
Mi, 07.12. 1:00 1019 0,0
Ortszeit Luftdruck NN (hPa) Tendenz (hPa in 3 Std.)
Do, 08.12. 20:30 1009 - 0,2
Do, 08.12. 20:20 1009 keine Meldung
Do, 08.12. 20:10 1009 keine Meldung
Do, 08.12. 20:00 1010 - 0,4
Do, 08.12. 19:50 1010 keine Meldung
Do, 08.12. 19:40 1010 keine Meldung
Do, 08.12. 19:30 1010 - 0,2
Do, 08.12. 19:00 1010 - 0,4
Do, 08.12. 18:30 1010 - 0,4
Do, 08.12. 18:00 1010 - 0,5
Do, 08.12. 17:30 1010 - 0,5
Ortszeit Schneehöhe (cm)
Do, 08.12. 19:00 0
Do, 08.12. 13:00 0
Do, 08.12. 7:00 0
Do, 08.12. 1:00 0
Mi, 07.12. 19:00 0
Mi, 07.12. 13:00 0
Mi, 07.12. 7:00 0
Mi, 07.12. 1:00 0
Ortszeit Schneehöhe (cm)
Do, 08.12. 20:30 0
Do, 08.12. 20:20 0
Do, 08.12. 20:10 0
Do, 08.12. 20:00 0
Do, 08.12. 19:50 0
Do, 08.12. 19:40 0
Do, 08.12. 19:30 0
Do, 08.12. 19:00 0
Do, 08.12. 18:30 0
Do, 08.12. 18:00 0
Do, 08.12. 17:30 0
Link zu dieser Seite / Seite empfehlen

Das Wetter in ...